Time;durP1;ratioP1;P1;durP2;ratioP2;P2;SDS_P1;SDS_P2;PMS_P1;PMS_P2;Temp;Humidity;BMP_temperature;BMP_pressure;BME280_temperature;BME280_humidity;BME280_pressure;Samples;Min_cycle;Max_cycle;Signal;HPM_P1;HPM_P2
2023/06/27 00:00:18;;;;;;;6.20;2.88;;;13.50;99.90;;;;;;5063635;28;20047;-84
2023/06/27 00:02:46;;;;;;;5.35;3.05;;;13.50;99.90;;;;;;5064280;28;20044;-84
2023/06/27 00:05:12;;;;;;;6.18;2.95;;;13.40;99.90;;;;;;5061579;28;20052;-84
2023/06/27 00:07:41;;;;;;;5.10;2.90;;;13.40;99.90;;;;;;5045489;28;20614;-85
2023/06/27 00:10:08;;;;;;;6.22;3.15;;;13.40;99.90;;;;;;5049461;28;20113;-85
2023/06/27 00:12:35;;;;;;;3.58;2.70;;;13.40;99.90;;;;;;5058877;28;20055;-84
2023/06/27 00:15:02;;;;;;;5.22;2.85;;;13.40;99.90;;;;;;5065367;28;20167;-85
2023/06/27 00:17:32;;;;;;;3.50;3.20;;;13.40;99.90;;;;;;5067352;28;20048;-84
2023/06/27 00:20:00;;;;;;;3.95;2.70;;;13.30;99.90;;;;;;5065958;28;20049;-84
2023/06/27 00:22:26;;;;;;;5.28;3.15;;;13.30;99.90;;;;;;5064451;28;20092;-85
2023/06/27 00:24:53;;;;;;;8.80;4.10;;;13.30;99.90;;;;;;5067886;28;20040;-85
2023/06/27 00:27:20;;;;;;;5.90;3.47;;;13.30;99.90;;;;;;5064709;28;20411;-85
2023/06/27 00:29:45;;;;;;;3.92;3.05;;;13.30;99.90;;;;;;5067233;28;20178;-84
2023/06/27 00:32:11;;;;;;;5.60;2.88;;;13.20;99.90;;;;;;5065297;28;20454;-85
2023/06/27 00:34:37;;;;;;;6.78;3.17;;;13.20;99.90;;;;;;5049115;28;20046;-84
2023/06/27 00:37:02;;;;;;;8.32;3.70;;;13.50;99.90;;;;;;5032747;28;20045;-85
2023/06/27 00:39:28;;;;;;;10.00;3.80;;;13.20;99.90;;;;;;5065283;28;20131;-83
2023/06/27 00:41:54;;;;;;;7.38;3.47;;;13.20;99.90;;;;;;5066351;28;20357;-83
2023/06/27 00:44:20;;;;;;;4.57;3.55;;;13.10;99.90;;;;;;5049479;28;20156;-84
2023/06/27 00:46:51;;;;;;;5.90;3.58;;;13.10;99.90;;;;;;5063998;28;20045;-84
2023/06/27 00:49:19;;;;;;;6.15;3.50;;;13.10;99.90;;;;;;5064808;28;20192;-84
2023/06/27 00:51:47;;;;;;;4.28;3.60;;;13.10;99.90;;;;;;5068469;28;20831;-84
2023/06/27 00:54:14;;;;;;;4.43;3.05;;;13.10;99.90;;;;;;5052261;28;20073;-84
2023/06/27 00:56:41;;;;;;;5.72;3.65;;;13.10;99.90;;;;;;5068458;28;20045;-83
2023/06/27 00:59:06;;;;;;;3.65;3.35;;;13.00;99.90;;;;;;5068228;28;20526;-84
2023/06/27 01:01:32;;;;;;;5.38;3.42;;;13.00;99.90;;;;;;5050746;28;20131;-84
2023/06/27 01:03:58;;;;;;;6.22;3.22;;;13.20;99.90;;;;;;5069954;28;20047;-84
2023/06/27 01:06:40;;;;;;;4.22;3.13;;;13.00;99.90;;;;;;5068223;28;20048;-84
2023/06/27 01:09:20;;;;;;;5.72;3.80;;;13.00;99.90;;;;;;5070029;28;20119;-84
2023/06/27 01:11:54;;;;;;;7.00;3.72;;;12.90;99.90;;;;;;5068482;28;20051;-84
2023/06/27 01:14:23;;;;;;;6.65;3.70;;;12.90;99.90;;;;;;5070391;28;20091;-84
2023/06/27 01:16:51;;;;;;;4.10;3.25;;;12.90;99.90;;;;;;5067932;28;20093;-84
2023/06/27 01:19:21;;;;;;;7.38;3.50;;;12.90;99.90;;;;;;5068873;28;20044;-84
2023/06/27 01:21:52;;;;;;;5.13;3.47;;;12.90;99.90;;;;;;5068430;28;20057;-84
2023/06/27 01:24:18;;;;;;;3.67;3.30;;;12.90;99.90;;;;;;5070287;28;20500;-84
2023/06/27 01:26:44;;;;;;;4.78;3.28;;;12.80;99.90;;;;;;5067316;28;20071;-84
2023/06/27 01:29:11;;;;;;;4.38;2.92;;;12.90;99.90;;;;;;5067240;28;20036;-84
2023/06/27 01:32:13;;;;;;;5.85;3.35;;;12.80;99.90;;;;;;5038759;28;20077;-84
2023/06/27 01:35:04;;;;;;;5.17;3.07;;;12.80;99.90;;;;;;5062326;28;20527;-85
2023/06/27 01:37:38;;;;;;;4.82;3.20;;;12.80;99.90;;;;;;5067431;28;20107;-85
2023/06/27 01:40:10;;;;;;;4.05;3.25;;;12.80;99.90;;;;;;5051049;28;20048;-85
2023/06/27 01:42:40;;;;;;;3.20;2.88;;;12.80;99.90;;;;;;5069160;28;20056;-85
2023/06/27 01:45:08;;;;;;;6.57;3.05;;;12.80;99.90;;;;;;5043521;28;20049;-84
2023/06/27 01:47:38;;;;;;;3.50;3.20;;;12.80;99.90;;;;;;5066298;28;20043;-85
2023/06/27 01:50:04;;;;;;;4.05;2.97;;;12.70;99.90;;;;;;5051069;28;20078;-85
2023/06/27 01:52:29;;;;;;;3.75;2.83;;;12.70;99.90;;;;;;5065689;28;20132;-85
2023/06/27 01:54:56;;;;;;;4.22;3.10;;;12.70;99.90;;;;;;5066952;28;20063;-85
2023/06/27 01:57:21;;;;;;;4.00;3.10;;;12.70;99.90;;;;;;5061749;28;20048;-85
2023/06/27 01:59:47;;;;;;;7.20;3.70;;;13.10;99.90;;;;;;5059583;28;20052;-84
2023/06/27 02:02:13;;;;;;;4.78;2.92;;;12.70;99.90;;;;;;5067220;28;20037;-84
2023/06/27 02:04:38;;;;;;;5.80;3.70;;;12.80;99.90;;;;;;5068694;28;20401;-84
2023/06/27 02:07:04;;;;;;;5.55;3.20;;;12.60;99.90;;;;;;5067752;28;20037;-84
2023/06/27 02:09:30;;;;;;;5.57;3.40;;;12.60;99.90;;;;;;5068486;28;20127;-84
2023/06/27 02:11:55;;;;;;;10.50;3.50;;;12.60;99.90;;;;;;5067563;28;20076;-85
2023/06/27 02:14:21;;;;;;;6.07;3.50;;;12.60;99.90;;;;;;5069196;28;20041;-84
2023/06/27 02:16:46;;;;;;;3.90;3.13;;;12.50;99.90;;;;;;5066674;28;20053;-84
2023/06/27 02:19:12;;;;;;;5.50;3.55;;;12.60;99.90;;;;;;5050763;28;20041;-84
2023/06/27 02:21:37;;;;;;;4.28;3.30;;;12.50;99.90;;;;;;5049326;28;20189;-85
2023/06/27 02:24:03;;;;;;;7.18;3.78;;;12.60;99.90;;;;;;5067971;28;20475;-84
2023/06/27 02:26:29;;;;;;;5.25;3.38;;;12.50;99.90;;;;;;5067760;28;20133;-83
2023/06/27 02:28:54;;;;;;;6.28;3.60;;;13.00;99.90;;;;;;5064273;28;20060;-84
2023/06/27 02:31:23;;;;;;;5.70;3.20;;;12.60;99.90;;;;;;5047427;28;20051;-84
2023/06/27 02:33:49;;;;;;;5.72;3.70;;;12.50;99.90;;;;;;5076646;28;20071;-84
2023/06/27 02:36:15;;;;;;;4.90;3.40;;;12.40;99.90;;;;;;5051547;28;20079;-84
2023/06/27 02:38:40;;;;;;;5.65;3.65;;;12.40;99.90;;;;;;5064274;28;20098;-84
2023/06/27 02:41:06;;;;;;;4.18;3.35;;;12.40;99.90;;;;;;5067703;28;20044;-85
2023/06/27 02:43:31;;;;;;;5.30;3.50;;;12.30;99.90;;;;;;5067068;28;20048;-85
2023/06/27 02:45:57;;;;;;;6.15;3.63;;;12.40;99.90;;;;;;5067818;28;20357;-85
2023/06/27 02:48:23;;;;;;;4.90;3.45;;;12.40;99.90;;;;;;5063053;28;20040;-84
2023/06/27 02:50:50;;;;;;;7.28;4.00;;;12.50;99.90;;;;;;5065583;28;20056;-84
2023/06/27 02:53:17;;;;;;;6.25;4.25;;;12.40;99.90;;;;;;5067910;28;20052;-85
2023/06/27 02:55:43;;;;;;;5.55;3.90;;;12.40;99.90;;;;;;5066829;28;20090;-85
2023/06/27 02:58:08;;;;;;;5.88;3.90;;;12.40;99.90;;;;;;5067041;28;20079;-84
2023/06/27 03:00:34;;;;;;;5.43;4.20;;;12.40;99.90;;;;;;5062400;28;20056;-84
2023/06/27 03:02:59;;;;;;;7.13;4.45;;;12.40;99.90;;;;;;5060280;28;20055;-84
2023/06/27 03:05:25;;;;;;;6.78;4.32;;;12.40;99.90;;;;;;5060299;28;20033;-84
2023/06/27 03:07:50;;;;;;;6.75;4.25;;;12.40;99.90;;;;;;5082914;28;20067;-84
2023/06/27 03:10:16;;;;;;;5.85;3.72;;;12.30;99.90;;;;;;5047543;28;20036;-84
2023/06/27 03:12:42;;;;;;;11.55;5.35;;;12.40;99.90;;;;;;5049528;28;20420;-84
2023/06/27 03:15:08;;;;;;;15.30;4.45;;;12.40;99.90;;;;;;5066298;28;20128;-85
2023/06/27 03:17:33;;;;;;;9.73;4.63;;;12.40;99.90;;;;;;5066400;28;20040;-85
2023/06/27 03:19:59;;;;;;;8.32;4.60;;;12.40;99.90;;;;;;5065648;28;20045;-85
2023/06/27 03:22:24;;;;;;;8.30;4.90;;;12.70;99.90;;;;;;5064614;28;20048;-85
2023/06/27 03:24:50;;;;;;;7.82;5.10;;;12.30;99.90;;;;;;5065671;28;20409;-85
2023/06/27 03:27:23;;;;;;;7.13;5.00;;;12.40;99.90;;;;;;5064601;28;20075;-85
2023/06/27 03:29:49;;;;;;;7.05;4.97;;;12.40;99.90;;;;;;5063816;28;20493;-85
2023/06/27 03:32:15;;;;;;;10.27;5.10;;;12.50;99.90;;;;;;5045596;28;20448;-85
2023/06/27 03:34:42;;;;;;;9.70;5.05;;;12.50;99.90;;;;;;5062177;28;20055;-86
2023/06/27 03:37:08;;;;;;;10.02;5.35;;;12.50;99.90;;;;;;5064887;28;20128;-85
2023/06/27 03:39:33;;;;;;;9.27;5.50;;;12.50;99.90;;;;;;5063591;28;20048;-85
2023/06/27 03:41:59;;;;;;;7.47;5.65;;;12.50;99.90;;;;;;5065018;28;20044;-86
2023/06/27 03:44:24;;;;;;;10.20;5.93;;;12.60;99.90;;;;;;5066001;28;20059;-85
2023/06/27 03:46:51;;;;;;;8.25;5.55;;;12.30;99.90;;;;;;5047381;28;20543;-84
2023/06/27 03:49:16;;;;;;;8.55;5.50;;;12.60;99.90;;;;;;5059681;28;20068;-85
2023/06/27 03:51:42;;;;;;;11.10;6.05;;;12.70;99.90;;;;;;5064860;28;20680;-85
2023/06/27 03:54:09;;;;;;;10.90;6.07;;;12.70;99.90;;;;;;5064575;28;20378;-85
2023/06/27 03:56:35;;;;;;;7.45;5.65;;;12.70;99.90;;;;;;5064643;28;20048;-84
2023/06/27 03:59:00;;;;;;;8.35;5.53;;;12.70;99.90;;;;;;5063093;28;20128;-84
2023/06/27 04:01:26;;;;;;;10.30;5.95;;;12.80;99.90;;;;;;5044367;28;20115;-84
2023/06/27 04:03:52;;;;;;;7.50;5.97;;;13.20;99.90;;;;;;5065006;28;20086;-84
2023/06/27 04:06:18;;;;;;;7.57;5.38;;;12.90;99.90;;;;;;5063598;28;20044;-86
2023/06/27 04:08:44;;;;;;;8.70;5.95;;;12.90;99.90;;;;;;5061814;28;20141;-85
2023/06/27 04:11:10;;;;;;;8.02;5.88;;;12.90;99.90;;;;;;5053159;28;20121;-84
2023/06/27 04:13:37;;;;;;;7.35;5.15;;;13.20;99.90;;;;;;5064393;28;20520;-84
2023/06/27 04:16:02;;;;;;;9.75;6.03;;;13.00;99.90;;;;;;5065732;28;20052;-85
2023/06/27 04:18:29;;;;;;;6.85;5.60;;;13.10;99.90;;;;;;5063808;28;20052;-84
2023/06/27 04:20:55;;;;;;;8.30;6.00;;;13.20;99.90;;;;;;5064967;28;20052;-83
2023/06/27 04:23:23;;;;;;;9.70;5.72;;;13.20;99.90;;;;;;5065674;28;20032;-84
2023/06/27 04:26:15;;;;;;;8.68;6.03;;;13.30;99.90;;;;;;5067571;28;20055;-85
2023/06/27 04:28:43;;;;;;;5.78;5.18;;;13.40;99.90;;;;;;5058673;28;20466;-84
2023/06/27 04:31:09;;;;;;;6.75;5.43;;;13.40;99.90;;;;;;5069964;28;20048;-85
2023/06/27 04:33:39;;;;;;;9.77;5.80;;;13.40;99.90;;;;;;5065801;28;20055;-85
2023/06/27 04:36:05;;;;;;;6.20;5.60;;;13.50;99.90;;;;;;5064125;28;20103;-84
2023/06/27 04:38:37;;;;;;;9.27;6.32;;;13.50;99.90;;;;;;5061530;28;20045;-84
2023/06/27 04:41:10;;;;;;;7.95;5.80;;;13.60;99.90;;;;;;5064696;28;20044;-85
2023/06/27 04:43:36;;;;;;;;;;;13.60;99.90;;;;;;5069308;28;20052;-85
2023/06/27 04:46:02;;;;;;;8.65;7.03;;;13.70;99.90;;;;;;5052330;28;19920;-84
2023/06/27 04:48:28;;;;;;;9.10;5.97;;;13.80;99.90;;;;;;5068323;28;20039;-84
2023/06/27 04:50:56;;;;;;;8.57;6.10;;;13.90;99.90;;;;;;5067888;28;20056;-85
2023/06/27 04:53:22;;;;;;;9.82;6.03;;;13.90;99.90;;;;;;5068358;28;20057;-84
2023/06/27 04:55:48;;;;;;;14.40;6.45;;;14.00;99.90;;;;;;5049759;28;20404;-84
2023/06/27 04:58:15;;;;;;;7.03;6.28;;;14.10;99.90;;;;;;5049431;28;20041;-85
2023/06/27 05:00:40;;;;;;;11.65;6.90;;;14.20;99.90;;;;;;5066516;28;20550;-84
2023/06/27 05:03:06;;;;;;;9.80;6.45;;;14.30;99.90;;;;;;5049257;28;20049;-84
2023/06/27 05:05:34;;;;;;;7.65;6.05;;;14.20;99.90;;;;;;5065505;28;20049;-85
2023/06/27 05:08:01;;;;;;;7.82;5.97;;;14.50;99.90;;;;;;5060053;28;20064;-85
2023/06/27 05:10:31;;;;;;;7.97;5.97;;;14.60;99.90;;;;;;5063172;28;20044;-84
2023/06/27 05:12:57;;;;;;;9.50;6.53;;;14.70;99.90;;;;;;5050685;28;20131;-85
2023/06/27 05:15:22;;;;;;;11.80;6.80;;;14.80;99.90;;;;;;5067199;28;20048;-86
2023/06/27 05:18:08;;;;;;;7.85;6.10;;;14.90;99.90;;;;;;5066779;28;20036;-85
2023/06/27 05:20:35;;;;;;;9.93;6.53;;;15.00;99.90;;;;;;5060329;28;20044;-86
2023/06/27 05:23:04;;;;;;;7.95;6.15;;;15.20;99.90;;;;;;5051363;28;20572;-86
2023/06/27 05:25:30;;;;;;;7.32;5.35;;;15.30;99.90;;;;;;5069164;28;20059;-87
2023/06/27 05:27:55;;;;;;;7.45;5.70;;;15.50;99.90;;;;;;5067036;28;20128;-87
2023/06/27 05:30:21;;;;;;;8.73;5.88;;;15.90;99.90;;;;;;5051564;28;20119;-87
2023/06/27 05:32:47;;;;;;;8.60;5.20;;;16.20;99.90;;;;;;5063720;28;20045;-86
2023/06/27 05:35:13;;;;;;;7.82;5.00;;;17.30;99.90;;;;;;5067806;28;20124;-86
2023/06/27 05:37:38;;;;;;;6.80;5.60;;;18.70;99.90;;;;;;5052660;28;20036;-86
2023/06/27 05:40:05;;;;;;;10.13;4.97;;;19.80;99.90;;;;;;5070419;28;20066;-85
2023/06/27 05:42:30;;;;;;;6.40;4.40;;;20.80;99.90;;;;;;5052636;28;20168;-86
2023/06/27 05:44:56;;;;;;;7.28;4.00;;;21.60;99.90;;;;;;5068523;28;20508;-87
2023/06/27 05:47:21;;;;;;;6.65;3.75;;;22.30;99.90;;;;;;5051242;28;20083;-87
2023/06/27 05:49:48;;;;;;;6.72;3.35;;;22.90;99.90;;;;;;5066548;28;20052;-87
2023/06/27 05:52:14;;;;;;;6.20;3.28;;;23.10;99.90;;;;;;5048813;28;20049;-87
2023/06/27 05:54:41;;;;;;;6.07;2.90;;;23.30;99.90;;;;;;5050191;28;20074;-87
2023/06/27 05:57:11;;;;;;;7.88;3.10;;;23.40;99.90;;;;;;5050814;28;20132;-86
2023/06/27 05:59:37;;;;;;;6.30;2.88;;;23.70;99.90;;;;;;5062792;28;20460;-86
2023/06/27 06:02:03;;;;;;;4.47;2.60;;;24.30;99.90;;;;;;5047190;28;20052;-85
2023/06/27 06:04:29;;;;;;;6.32;2.50;;;24.40;99.80;;;;;;5065246;28;20051;-84
2023/06/27 06:06:55;;;;;;;5.72;2.30;;;24.70;98.30;;;;;;5068403;28;20590;-85
2023/06/27 06:09:21;;;;;;;5.50;2.53;;;24.90;96.70;;;;;;5068413;28;20045;-85
2023/06/27 06:11:46;;;;;;;7.13;2.28;;;24.70;95.10;;;;;;5068584;28;20040;-85
2023/06/27 06:14:12;;;;;;;4.70;1.65;;;25.00;94.80;;;;;;5050908;28;20102;-86
2023/06/27 06:16:38;;;;;;;6.20;1.95;;;24.90;93.40;;;;;;5066989;28;20048;-85
2023/06/27 06:19:03;;;;;;;5.35;1.60;;;25.00;92.70;;;;;;5047461;28;20562;-84
2023/06/27 06:21:30;;;;;;;4.55;1.52;;;24.90;91.50;;;;;;5047907;28;20045;-86
2023/06/27 06:23:56;;;;;;;4.03;1.58;;;25.10;90.60;;;;;;5046684;28;20110;-85
2023/06/27 06:26:22;;;;;;;5.45;1.98;;;24.80;90.20;;;;;;5079287;28;20492;-85
2023/06/27 06:28:48;;;;;;;3.95;1.77;;;24.90;89.30;;;;;;5049654;28;20037;-86
2023/06/27 06:31:17;;;;;;;3.10;1.30;;;25.00;88.10;;;;;;5050711;28;20045;-85
2023/06/27 06:33:44;;;;;;;4.25;1.80;;;25.30;87.30;;;;;;5051322;28;20131;-87
2023/06/27 06:36:10;;;;;;;4.25;1.50;;;25.30;85.90;;;;;;5066629;28;20051;-86
2023/06/27 06:38:35;;;;;;;5.03;1.58;;;25.10;85.30;;;;;;5051407;28;20040;-83
2023/06/27 06:41:02;;;;;;;4.38;1.70;;;25.30;83.20;;;;;;5069093;28;20451;-87
2023/06/27 06:43:28;;;;;;;3.88;1.50;;;24.90;81.60;;;;;;5050840;28;20519;-86
2023/06/27 06:45:53;;;;;;;6.45;1.40;;;24.40;82.10;;;;;;5066427;28;20044;-85
2023/06/27 06:48:19;;;;;;;3.30;1.02;;;23.50;84.80;;;;;;5068090;28;20080;-87
2023/06/27 06:50:46;;;;;;;2.85;1.45;;;22.80;88.10;;;;;;5067130;28;20071;-87
2023/06/27 06:53:12;;;;;;;2.17;1.00;;;22.20;90.30;;;;;;5066981;28;20128;-85
2023/06/27 06:55:37;;;;;;;3.60;0.95;;;21.90;91.00;;;;;;5068851;28;20158;-87
2023/06/27 06:58:04;;;;;;;2.33;1.10;;;21.90;90.80;;;;;;5067919;28;20500;-86
2023/06/27 07:00:30;;;;;;;2.85;0.90;;;21.70;90.40;;;;;;5068369;28;20062;-86
2023/06/27 07:02:56;;;;;;;3.13;1.00;;;21.70;88.80;;;;;;5050931;28;20056;-86
2023/06/27 07:05:22;;;;;;;3.78;1.55;;;21.60;86.70;;;;;;5050888;28;20080;-86
2023/06/27 07:08:06;;;;;;;3.67;1.05;;;21.40;84.70;;;;;;5083142;28;20076;-86
2023/06/27 07:10:32;;;;;;;3.28;1.10;;;21.30;79.00;;;;;;5051194;28;20059;-85
2023/06/27 07:12:59;;;;;;;3.38;1.00;;;21.20;83.70;;;;;;5066851;28;20502;-85
2023/06/27 07:15:29;;;;;;;4.35;1.08;;;21.10;81.40;;;;;;5050272;28;20343;-85
2023/06/27 07:17:55;;;;;;;5.57;0.98;;;20.90;80.10;;;;;;5050316;28;20186;-84
2023/06/27 07:20:22;;;;;;;2.65;0.95;;;20.90;81.80;;;;;;5063160;28;20681;-86
2023/06/27 07:22:48;;;;;;;4.18;1.20;;;21.10;81.80;;;;;;5067053;28;20515;-86
2023/06/27 07:25:14;;;;;;;3.22;0.93;;;21.10;82.70;;;;;;5067525;28;20053;-86
2023/06/27 07:27:41;;;;;;;5.32;1.17;;;21.00;82.20;;;;;;5067005;28;20048;-86
2023/06/27 07:30:07;;;;;;;3.45;0.95;;;21.40;82.30;;;;;;5050582;28;20048;-86
2023/06/27 07:32:33;;;;;;;6.32;0.93;;;21.50;81.70;;;;;;5049606;28;20103;-87
2023/06/27 07:34:59;;;;;;;4.65;1.02;;;21.70;80.90;;;;;;5048664;28;20060;-84
2023/06/27 07:37:24;;;;;;;5.28;1.05;;;21.80;80.50;;;;;;5067934;28;20070;-84
2023/06/27 07:39:50;;;;;;;2.63;1.00;;;22.10;80.50;;;;;;5067913;28;20078;-83
2023/06/27 07:42:17;;;;;;;3.22;1.00;;;22.10;79.60;;;;;;5066146;28;20045;-83
2023/06/27 07:44:43;;;;;;;2.30;0.98;;;22.00;79.20;;;;;;5064547;28;20055;-83
2023/06/27 07:47:09;;;;;;;1.95;0.82;;;22.10;79.40;;;;;;5066718;28;20037;-84
2023/06/27 07:49:34;;;;;;;3.80;0.85;;;22.00;78.70;;;;;;5065249;28;21013;-84
2023/06/27 07:52:00;;;;;;;1.85;0.80;;;21.90;78.90;;;;;;5062940;28;20083;-82
2023/06/27 07:54:27;;;;;;;1.73;0.70;;;21.70;78.40;;;;;;5065260;28;20123;-82
2023/06/27 07:56:56;;;;;;;2.55;0.80;;;21.50;78.30;;;;;;5064470;28;20105;-82
2023/06/27 07:59:22;;;;;;;6.47;0.80;;;21.50;77.60;;;;;;5047356;28;20165;-83
2023/06/27 08:01:47;;;;;;;2.15;0.90;;;21.40;77.00;;;;;;5068019;28;20578;-82
2023/06/27 08:04:15;;;;;;;3.92;1.08;;;21.30;76.70;;;;;;5066342;28;20048;-82
2023/06/27 08:06:41;;;;;;;3.08;0.75;;;21.30;77.30;;;;;;5066986;28;20036;-83
2023/06/27 08:09:06;;;;;;;2.92;0.75;;;21.30;77.70;;;;;;5066632;28;20052;-82
2023/06/27 08:11:32;;;;;;;1.83;0.70;;;21.30;77.20;;;;;;5065253;28;20055;-82
2023/06/27 08:13:58;;;;;;;3.70;0.98;;;21.30;76.20;;;;;;5067400;28;20044;-81
2023/06/27 08:16:23;;;;;;;4.57;0.85;;;21.10;74.80;;;;;;5067650;28;20484;-82
2023/06/27 08:18:49;;;;;;;2.00;0.82;;;21.30;74.40;;;;;;5066572;28;20040;-81
2023/06/27 08:21:14;;;;;;;3.05;0.80;;;21.40;74.10;;;;;;5066137;28;20749;-83
2023/06/27 08:23:40;;;;;;;3.63;1.80;;;21.50;73.20;;;;;;5066436;28;20048;-83
2023/06/27 08:26:05;;;;;;;3.13;2.25;;;21.60;73.80;;;;;;5067463;28;20514;-82
2023/06/27 08:28:32;;;;;;;3.08;1.80;;;21.50;73.40;;;;;;5062960;28;20045;-83
2023/06/27 08:30:57;;;;;;;3.50;1.20;;;21.80;73.80;;;;;;5046530;28;20052;-82
2023/06/27 08:33:24;;;;;;;1.88;0.60;;;22.00;72.90;;;;;;5053846;28;20040;-83
2023/06/27 08:35:50;;;;;;;2.80;1.00;;;22.10;71.40;;;;;;5065429;28;20084;-81
2023/06/27 08:38:17;;;;;;;3.22;1.00;;;22.10;70.20;;;;;;5065340;28;20141;-83
2023/06/27 08:40:44;;;;;;;2.30;1.13;;;22.20;69.60;;;;;;5049888;28;20166;-83
2023/06/27 08:43:10;;;;;;;2.88;0.82;;;22.20;68.10;;;;;;5062450;28;20146;-83
2023/06/27 08:45:39;;;;;;;3.33;0.70;;;22.40;67.50;;;;;;5066713;28;20111;-82
2023/06/27 08:48:09;;;;;;;3.03;0.70;;;22.70;67.30;;;;;;5065746;28;20063;-84
2023/06/27 08:50:37;;;;;;;1.90;0.70;;;22.70;65.40;;;;;;5065320;28;20056;-83
2023/06/27 08:53:06;;;;;;;4.30;0.90;;;22.80;65.90;;;;;;5064734;28;20132;-82
2023/06/27 08:55:38;;;;;;;3.97;0.90;;;23.00;64.60;;;;;;5067031;28;20509;-83
2023/06/27 08:58:07;;;;;;;;;;;22.60;63.30;;;;;;5067381;28;20037;-83
2023/06/27 09:00:33;;;;;;;2.05;0.57;;;22.60;61.70;;;;;;5066074;28;20295;-82
2023/06/27 09:02:58;;;;;;;3.13;1.00;;;22.80;64.50;;;;;;5065390;28;20071;-82
2023/06/27 09:05:24;;;;;;;2.38;1.05;;;22.70;63.30;;;;;;5065567;28;20434;-82
2023/06/27 09:07:50;;;;;;;2.38;0.70;;;22.70;63.10;;;;;;5065620;28;20110;-82
2023/06/27 09:10:16;;;;;;;1.60;0.63;;;22.70;62.70;;;;;;5068771;28;20073;-83
2023/06/27 09:12:44;;;;;;;1.70;0.88;;;22.70;63.10;;;;;;5070582;28;20049;-82
2023/06/27 09:15:11;;;;;;;4.28;0.80;;;22.60;63.30;;;;;;5069045;28;20594;-81
2023/06/27 09:17:37;;;;;;;6.38;1.17;;;22.60;63.80;;;;;;5069967;28;20044;-82
2023/06/27 09:20:05;;;;;;;2.47;0.80;;;22.70;64.40;;;;;;5068291;28;20467;-82
2023/06/27 09:22:31;;;;;;;2.20;0.70;;;22.60;64.60;;;;;;5070362;28;20045;-82
2023/06/27 09:25:14;;;;;;;1.45;0.73;;;22.60;64.60;;;;;;5069199;28;20047;-82
2023/06/27 09:27:40;;;;;;;2.45;0.90;;;22.60;64.10;;;;;;5068162;28;20111;-85
2023/06/27 09:30:07;;;;;;;4.15;1.58;;;22.60;64.90;;;;;;5062864;28;20858;-80
2023/06/27 09:32:34;;;;;;;1.48;0.68;;;22.60;64.40;;;;;;5064563;28;20056;-82
2023/06/27 09:35:01;;;;;;;1.98;1.02;;;22.60;64.10;;;;;;5070187;28;20493;-82
2023/06/27 09:37:33;;;;;;;2.03;0.88;;;22.70;64.20;;;;;;5068880;28;20045;-83
2023/06/27 09:40:16;;;;;;;4.72;0.90;;;23.00;65.00;;;;;;5066623;28;20514;-82
2023/06/27 09:42:52;;;;;;;2.85;0.70;;;22.80;63.90;;;;;;5063765;28;20055;-82
2023/06/27 09:45:19;;;;;;;1.30;0.90;;;22.80;65.30;;;;;;5069025;28;20495;-82
2023/06/27 09:47:49;;;;;;;1.63;0.70;;;23.10;65.20;;;;;;5069366;28;20123;-82
2023/06/27 09:50:16;;;;;;;1.77;0.57;;;23.00;64.10;;;;;;5068158;28;20084;-84
2023/06/27 09:52:55;;;;;;;1.80;0.80;;;23.00;64.10;;;;;;5069894;28;20044;-85
2023/06/27 09:55:21;;;;;;;2.90;0.85;;;23.00;64.30;;;;;;5066892;28;20048;-83
2023/06/27 09:57:47;;;;;;;3.22;0.80;;;23.20;64.40;;;;;;5070081;28;20118;-83
2023/06/27 10:00:16;;;;;;;1.42;0.65;;;23.00;64.30;;;;;;5066789;28;20044;-83
2023/06/27 10:02:46;;;;;;;4.03;0.82;;;23.00;64.10;;;;;;5049159;28;20507;-86
2023/06/27 10:05:12;;;;;;;1.48;0.80;;;22.90;64.10;;;;;;5066953;28;20820;-86
2023/06/27 10:07:39;;;;;;;3.58;0.90;;;22.80;64.70;;;;;;5068239;28;20033;-86
2023/06/27 10:10:06;;;;;;;3.22;0.80;;;22.90;65.40;;;;;;5068172;28;20436;-85
2023/06/27 10:12:33;;;;;;;2.15;0.75;;;22.90;65.20;;;;;;5067641;28;20048;-86
2023/06/27 10:14:59;;;;;;;2.17;0.82;;;23.00;64.60;;;;;;5052113;28;20385;-87
2023/06/27 10:17:26;;;;;;;2.78;0.75;;;23.20;64.50;;;;;;5067711;28;20082;-86
2023/06/27 10:19:53;;;;;;;2.92;0.80;;;23.10;64.00;;;;;;5068442;28;20053;-86
2023/06/27 10:22:21;;;;;;;1.67;0.75;;;23.20;64.40;;;;;;5068019;28;20032;-86
2023/06/27 10:24:48;;;;;;;1.17;0.60;;;23.40;64.80;;;;;;5068120;28;20088;-87
2023/06/27 10:27:21;;;;;;;2.58;0.80;;;23.40;64.90;;;;;;5067859;28;20094;-86
2023/06/27 10:29:47;;;;;;;2.20;0.80;;;23.50;64.70;;;;;;5066569;28;20057;-86
2023/06/27 10:32:18;;;;;;;2.60;1.00;;;23.60;65.00;;;;;;5065999;28;20708;-86
2023/06/27 10:34:45;;;;;;;2.90;1.05;;;23.60;63.20;;;;;;5065953;28;20046;-86
2023/06/27 10:37:23;;;;;;;4.45;0.98;;;23.90;63.20;;;;;;5049669;28;20455;-84
2023/06/27 10:39:57;;;;;;;7.57;1.52;;;23.60;62.70;;;;;;5066026;28;20123;-84
2023/06/27 10:42:22;;;;;;;5.63;0.80;;;23.50;62.80;;;;;;5067505;28;20052;-86
2023/06/27 10:45:09;;;;;;;1.98;0.70;;;23.30;63.60;;;;;;5067432;28;20052;-86
2023/06/27 10:47:41;;;;;;;6.13;1.20;;;23.10;63.30;;;;;;5068070;28;20610;-86
2023/06/27 10:50:12;;;;;;;2.15;0.60;;;23.10;64.90;;;;;;5066593;28;20056;-86
2023/06/27 10:52:39;;;;;;;2.70;0.77;;;23.30;64.00;;;;;;5067480;28;20147;-87
2023/06/27 10:55:14;;;;;;;1.75;0.88;;;23.30;63.30;;;;;;5067058;28;20052;-86
2023/06/27 10:57:40;;;;;;;2.72;0.80;;;23.30;62.60;;;;;;5066831;28;20041;-86
2023/06/27 11:00:21;;;;;;;2.33;1.00;;;23.30;63.10;;;;;;5050869;28;20415;-86
2023/06/27 11:02:49;;;;;;;3.42;0.95;;;23.30;61.70;;;;;;5067224;28;20054;-86
2023/06/27 11:05:18;;;;;;;2.55;0.88;;;23.40;63.70;;;;;;5050305;28;20048;-85
2023/06/27 11:07:57;;;;;;;3.40;0.80;;;23.80;63.80;;;;;;5067540;28;20052;-85
2023/06/27 11:10:31;;;;;;;1.48;0.80;;;23.70;61.50;;;;;;5068612;28;20040;-86
2023/06/27 11:13:18;;;;;;;3.38;0.80;;;23.50;61.40;;;;;;5068185;28;20477;-85
2023/06/27 11:15:45;;;;;;;3.15;0.80;;;23.30;60.90;;;;;;5067497;28;20075;-85
2023/06/27 11:18:18;;;;;;;1.85;0.70;;;23.50;61.50;;;;;;5067213;28;20052;-86
2023/06/27 11:20:45;;;;;;;3.13;1.00;;;23.60;60.40;;;;;;5066479;28;20052;-86
2023/06/27 11:23:15;;;;;;;2.30;0.82;;;23.60;61.40;;;;;;5050231;28;20059;-86
2023/06/27 11:25:43;;;;;;;3.65;1.00;;;23.50;61.30;;;;;;5067140;28;20390;-85
2023/06/27 11:28:13;;;;;;;1.88;0.68;;;23.50;61.10;;;;;;5066375;28;20052;-85
2023/06/27 11:30:39;;;;;;;3.10;0.85;;;23.50;61.30;;;;;;5066778;28;20044;-86
2023/06/27 11:33:06;;;;;;;3.70;0.80;;;23.40;61.30;;;;;;5066663;28;20052;-86
2023/06/27 11:35:32;;;;;;;3.13;0.90;;;23.50;62.30;;;;;;5066549;28;20084;-86
2023/06/27 11:37:59;;;;;;;2.13;0.98;;;23.30;62.20;;;;;;5048886;28;20047;-86
2023/06/27 11:40:25;;;;;;;3.47;1.00;;;23.30;62.80;;;;;;5066924;28;20514;-86
2023/06/27 11:42:58;;;;;;;1.10;0.57;;;23.00;63.40;;;;;;5065948;28;20798;-84
2023/06/27 11:45:27;;;;;;;1.90;0.80;;;22.80;63.40;;;;;;5050292;28;20059;-86
2023/06/27 11:47:53;;;;;;;3.70;0.70;;;22.60;64.00;;;;;;5066491;28;20051;-85
2023/06/27 11:50:19;;;;;;;2.35;0.82;;;22.50;64.60;;;;;;5066002;28;20060;-86
2023/06/27 11:52:47;;;;;;;2.08;0.80;;;22.50;64.70;;;;;;5050354;28;20506;-86
2023/06/27 11:55:13;;;;;;;2.25;0.70;;;22.50;64.90;;;;;;5049700;28;20040;-85
2023/06/27 11:57:43;;;;;;;3.45;1.02;;;22.90;65.00;;;;;;5049866;28;20063;-85
2023/06/27 12:00:29;;;;;;;3.40;0.80;;;23.10;65.20;;;;;;5067258;28;20040;-85
2023/06/27 12:02:57;;;;;;;4.50;0.95;;;22.90;64.50;;;;;;5049242;28;20092;-86
2023/06/27 12:05:24;;;;;;;2.08;1.05;;;22.90;65.20;;;;;;5065877;28;20071;-86
2023/06/27 12:07:56;;;;;;;3.10;0.88;;;22.90;64.50;;;;;;5049965;28;20075;-85
2023/06/27 12:10:22;;;;;;;2.00;0.80;;;22.70;63.80;;;;;;5048692;28;20051;-86
2023/06/27 12:12:50;;;;;;;3.40;0.90;;;22.60;63.90;;;;;;5050134;28;20052;-85
2023/06/27 12:15:16;;;;;;;2.75;0.85;;;22.50;63.50;;;;;;5067839;28;20090;-86
2023/06/27 12:17:54;;;;;;;1.73;0.50;;;22.60;63.50;;;;;;5066876;28;20053;-85
2023/06/27 12:20:20;;;;;;;1.95;1.00;;;22.50;63.40;;;;;;5064669;28;20071;-86
2023/06/27 12:22:45;;;;;;;1.35;0.70;;;22.30;64.10;;;;;;5066280;28;20423;-84
2023/06/27 12:25:14;;;;;;;5.07;0.90;;;22.30;64.40;;;;;;5049413;28;20408;-85
2023/06/27 12:27:40;;;;;;;1.20;0.73;;;22.70;64.70;;;;;;5066480;28;20047;-86
2023/06/27 12:30:09;;;;;;;3.88;1.33;;;22.70;64.20;;;;;;5066041;28;20044;-87
2023/06/27 12:32:35;;;;;;;2.70;1.00;;;22.90;63.50;;;;;;5049268;28;20084;-85
2023/06/27 12:35:01;;;;;;;3.33;0.80;;;23.10;62.90;;;;;;5065712;28;20496;-86
2023/06/27 12:37:28;;;;;;;3.08;0.70;;;23.30;62.20;;;;;;5082977;28;20041;-84
2023/06/27 12:39:54;;;;;;;1.85;0.63;;;23.40;60.30;;;;;;5082476;28;20052;-85
2023/06/27 12:42:20;;;;;;;1.92;0.70;;;23.60;59.30;;;;;;5049212;28;20041;-86
2023/06/27 12:44:45;;;;;;;2.55;0.80;;;23.30;58.80;;;;;;5068705;28;20032;-86
2023/06/27 12:47:11;;;;;;;4.07;0.85;;;23.40;59.00;;;;;;5053826;28;20048;-87
2023/06/27 12:49:38;;;;;;;1.00;0.70;;;23.20;58.90;;;;;;5069790;28;20401;-85